Flight Track Log - Related Links

Times and Time Zones

All times are in EDT time to prevent confusion due to time zone crossing. See the DAL1349 flight status page for this flight to view local times or setup timezone preferences in your user account.

Time Position Orientation Groundspeed Altitude Reporting Facility
EDT Latitude Longitude Course Direction KTS MPH feet Rate Location/Type
Sun 07:07:32 AM 38.3442 -81.6269 204° Southwest 159 183 3,000  Level Indianapolis Center
Sun 07:08:32 AM 38.2925 -81.6558 204° Southwest 196 226 5,400 2,926 Climbing Indianapolis Center
Sun 07:09:33 AM 38.2225 -81.6950 204° Southwest 264 304 8,900 3,049 Climbing Indianapolis Center
Sun 07:10:34 AM 38.1494 -81.7386 205° Southwest 288 331 11,600 2,083 Climbing Indianapolis Center
Sun 07:11:34 AM 38.0564 -81.7911 204° Southwest 361 415 13,100 2,132 Climbing Indianapolis Center
Sun 07:12:35 AM 37.9531 -81.8494 204° Southwest 400 460 15,900 2,459 Climbing Indianapolis Center
Sun 07:13:36 AM 37.8483 -81.9106 205° Southwest 412 474 18,100 2,213 Climbing Indianapolis Center
Sun 07:14:37 AM 37.7275 -81.9789 204° Southwest 429 494 20,400 2,083 Climbing Indianapolis Center
Sun 07:15:37 AM 37.6156 -82.0431 204° Southwest 437 503 22,300 1,835 Climbing Indianapolis Center
Sun 07:16:38 AM 37.4986 -82.1072 204° Southwest 451 519 24,100 1,623 Climbing Indianapolis Center
Sun 07:17:39 AM 37.3822 -82.1744 205° Southwest 456 525 25,600 1,982 Climbing Indianapolis Center
Sun 07:18:27 AM 37.2856 -82.2286 204° Southwest 453 521 27,700 2,278 Climbing Atlanta Center
Sun 07:19:27 AM 37.1739 -82.2936 205° Southwest 453 521 29,700 1,150 Climbing Atlanta Center
Sun 07:20:27 AM 37.0622 -82.3533 203° Southwest 443 510 30,000 150 Climbing Atlanta Center
Sun 07:21:27 AM 36.9503 -82.4078 201° Southwest 435 501 30,000  Level Atlanta Center
Sun 07:21:42 AM 36.9308 -82.4158 198° South 436 502 30,000  Level Indianapolis Center
Sun 07:22:27 AM 36.8342 -82.4542 198° South 440 506 30,000  Level Atlanta Center
Sun 07:23:27 AM 36.7283 -82.4978 198° South 440 506 30,000  Level Atlanta Center
Sun 07:24:27 AM 36.6144 -82.5439 198° South 440 506 30,000  Level Atlanta Center
Sun 07:25:27 AM 36.4961 -82.5900 197° South 440 506 30,000  Level Atlanta Center
Sun 07:26:27 AM 36.3819 -82.6383 199° South 440 506 30,000  Level Atlanta Center
Sun 07:27:27 AM 36.2656 -82.6842 198° South 440 506 30,000  Level Atlanta Center
Sun 07:28:27 AM 36.1514 -82.7300 198° South 440 506 30,000  Level Atlanta Center
Sun 07:29:27 AM 36.0350 -82.7753 197° South 440 506 30,000  Level Atlanta Center
Sun 07:30:27 AM 35.9186 -82.8208 198° South 440 506 30,000  Level Atlanta Center
Sun 07:31:27 AM 35.8044 -82.8686 199° South 440 506 30,000  Level Atlanta Center
Sun 07:32:27 AM 35.6861 -82.9136 197° South 440 506 30,000 -300 Level Atlanta Center
Sun 07:33:27 AM 35.5758 -82.9689 202° Southwest 440 506 29,400 -800 Descending Atlanta Center
Sun 07:34:27 AM 35.4639 -83.0317 205° Southwest 440 506 28,400 -1,000 Descending Atlanta Center
Sun 07:35:27 AM 35.3475 -83.1042 207° Southwest 440 506 27,400 -1,000 Descending Atlanta Center
Sun 07:36:27 AM 35.2417 -83.1692 207° Southwest 435 501 26,400 -1,000 Descending Atlanta Center
Sun 07:37:27 AM 35.1356 -83.2311 206° Southwest 430 495 25,400 -1,000 Descending Atlanta Center
Sun 07:38:27 AM 35.0294 -83.2956 206° Southwest 425 489 24,400 -700 Descending Atlanta Center
Sun 07:39:27 AM 34.9278 -83.3522 205° Southwest 420 483 24,000 -200 Descending Atlanta Center
Sun 07:40:27 AM 34.8194 -83.4189 207° Southwest 427 491 24,000  Level Atlanta Center
Sun 07:41:27 AM 34.7114 -83.4803 205° Southwest 420 483 24,000  Level Atlanta Center
Sun 07:42:27 AM 34.6072 -83.5417 206° Southwest 420 483 24,000 -300 Level Atlanta Center
Sun 07:43:27 AM 34.5011 -83.6028 205° Southwest 420 483 23,400 -850 Descending Atlanta Center
Sun 07:44:27 AM 34.3969 -83.6636 206° Southwest 420 483 22,300 -1,650 Descending Atlanta Center
Sun 07:45:27 AM 34.2969 -83.7219 206° Southwest 413 475 20,100 -2,950 Descending Atlanta Center
Sun 07:46:27 AM 34.1967 -83.7800 206° Southwest 404 465 16,400 -3,050 Descending Atlanta Center
Sun 07:47:27 AM 34.1050 -83.8356 207° Southwest 380 437 14,000 -1,400 Descending Atlanta Center
Sun 07:48:27 AM 34.0322 -83.9008 217° Southwest 375 432 13,600 -1,600 Descending Atlanta Center
Sun 07:48:57 AM 33.9833 -83.9500 220° Southwest 364 419 11,600 -1,733 Descending Atlanta TRACON
Sun 07:49:57 AM 33.9167 -84.0167 220° Southwest 317 365 11,000 -300 Descending Atlanta TRACON
Sun 07:50:57 AM 33.8667 -84.0833 228° Southwest 285 328 11,000  Level Atlanta TRACON
Sun 07:51:27 AM 33.8317 -84.1089 211° Southwest 298 343 11,000  Level Atlanta Center
Sun 07:51:57 AM 33.8000 -84.1333 213° Southwest 250 288 11,000  Level Atlanta TRACON
Sun 07:52:57 AM 33.7333 -84.1667 203° Southwest 237 273 11,000  Level Atlanta TRACON
Sun 07:53:57 AM 33.7333 -84.2500 270° West 242 278 11,000  Level Atlanta TRACON
Sun 07:54:57 AM 33.7333 -84.3333 270° West 244 281 11,000 -500 Level Atlanta TRACON
Sun 07:55:57 AM 33.7333 -84.4167 270° West 247 284 10,000 -1,100 Descending Atlanta TRACON
Sun 07:56:57 AM 33.7333 -84.5000 270° West 245 282 8,800 -1,550 Descending Atlanta TRACON
Sun 07:57:57 AM 33.7333 -84.5667 270° West 237 273 6,900 -1,950 Descending Atlanta TRACON
Sun 07:58:57 AM 33.7167 -84.6500 257° West 242 278 4,900 -1,381 Descending Atlanta TRACON
Sun 08:00:03 AM 33.6667 -84.6500 180° South 209 241 4,000 -600 Descending Atlanta TRACON
Sun 08:00:57 AM 33.6500 -84.5833 107° East 177 204 3,700 -737 Descending Atlanta TRACON
Sun 08:01:57 AM 33.6500 -84.5333 90° East 180 207 2,600 -900 Descending Atlanta TRACON
Sun 08:02:57 AM 33.6500 -84.4833 90° East 125 144 1,900 -650 Descending Atlanta TRACON
Sun 08:03:57 AM 33.6500 -84.4500 90° East 116 133 1,300 -600 Descending Atlanta TRACON
Sun 08:05:00 AM 33.6367 -84.4279 64° Northeast  Level Estimated
Sun 08:12:00 AM 33.6367 -84.4279 64° Northeast  Level Estimated

Login

Don't have an account? Register now (free) for customized features, flight alerts, and more!